Touchet, Washington
Current Conditions -  °F | °C
As of 4:53 AM on Thursday 30 Oct 2014 (Local Time) from KALW Reporting Station
Haze Haze  
Wind Chill: 50°   Ceiling: 100
Heat Index: 50°   Visibility: 1.2mi
Dew Point: 49°   Wind: 8mph
Humidity: 96%   Direction: 170°S
Pressure: 30.05"   Gusts: NA
Location:  46.04°N, 118.67°W
Report Text: KALW 301153Z AUTO 17007KT 1 1/4SM BR OVC001 10/09 A3005 RMK AO2 SLP175 T01000094 10122 20100 56012
Loading
Personal Weather Stations






























Interactive Weather Map
Tropical Storm Tracking
New forecast layout! Learn more

10-Day Weather Forecast

Advertisements
Track Severe Weather on mobile